TUI28S LGIR-LGKR
Flight info
| Callsign | TUI28S |
|---|---|
| Flight time | 0h 59m |
| Altitude | 32000 |
| Route | EPALO M749 DIRMI UL613 KOR UL53 PARNA |
| Aircraft | B38M/M-SDE1FGHILORVWXY/HB1 |
Departure
| Time | 2026-04-28 14:34 |
|---|---|
| Airport | Heraklion International Nikos Kazantzakis Airport (LGIR) |
Arrival
| Time | 2026-04-28 15:33 |
|---|---|
| Airport | Corfu Ioannis Kapodistrias International Airport (LGKR) |
| Time | Latitude | Longitude | Altitude | Speed | Heading |
|---|---|---|---|---|---|
| 2026-04-28 14:12 | 35.33778 | 25.17298 | 93 ft | 0 kts | 275° |
| 2026-04-28 14:29 | 35.33779 | 25.17293 | 95 ft | 1 kts | 285° |
| 2026-04-28 14:30 | 35.33793 | 25.17292 | 95 ft | 4 kts | 23° |
| 2026-04-28 14:30 | 35.33804 | 25.17349 | 93 ft | 9 kts | 76° |
| 2026-04-28 14:30 | 35.33861 | 25.17373 | 97 ft | 10 kts | 4° |
| 2026-04-28 14:30 | 35.33915 | 25.17415 | 93 ft | 11 kts | 83° |
| 2026-04-28 14:31 | 35.33911 | 25.17513 | 96 ft | 12 kts | 95° |
| 2026-04-28 14:31 | 35.33903 | 25.17626 | 94 ft | 15 kts | 94° |
| 2026-04-28 14:31 | 35.33895 | 25.17790 | 94 ft | 23 kts | 94° |
| 2026-04-28 14:31 | 35.33880 | 25.18006 | 95 ft | 27 kts | 95° |
| 2026-04-28 14:32 | 35.33863 | 25.18237 | 95 ft | 28 kts | 95° |
| 2026-04-28 14:32 | 35.33846 | 25.18482 | 93 ft | 30 kts | 94° |
| 2026-04-28 14:32 | 35.33826 | 25.18741 | 92 ft | 31 kts | 95° |
| 2026-04-28 14:32 | 35.33839 | 25.18964 | 92 ft | 21 kts | 55° |
| 2026-04-28 14:33 | 35.33907 | 25.18981 | 91 ft | 10 kts | 294° |
| 2026-04-28 14:33 | 35.33914 | 25.18888 | 91 ft | 12 kts | 273° |
| 2026-04-28 14:33 | 35.33938 | 25.18574 | 91 ft | 76 kts | 275° |
| 2026-04-28 14:33 | 35.34006 | 25.17638 | 94 ft | 145 kts | 275° |
| 2026-04-28 14:34 | 35.34270 | 25.14685 | 1471 ft | 174 kts | 290° |
| 2026-04-28 14:34 | 35.34901 | 25.13418 | 2245 ft | 184 kts | 318° |
| 2026-04-28 14:34 | 35.35633 | 25.12830 | 2502 ft | 199 kts | 338° |
| 2026-04-28 14:35 | 35.37609 | 25.12337 | 3069 ft | 232 kts | 343° |
| 2026-04-28 14:35 | 35.39150 | 25.11762 | 3975 ft | 237 kts | 343° |
| 2026-04-28 14:35 | 35.40790 | 25.11178 | 4650 ft | 252 kts | 344° |
| 2026-04-28 14:35 | 35.42483 | 25.10595 | 5593 ft | 253 kts | 345° |
| 2026-04-28 14:36 | 35.44199 | 25.10015 | 6478 ft | 258 kts | 345° |
| 2026-04-28 14:36 | 35.45943 | 25.09434 | 7353 ft | 262 kts | 345° |
| 2026-04-28 14:36 | 35.47713 | 25.08848 | 8240 ft | 265 kts | 345° |
| 2026-04-28 14:36 | 35.49515 | 25.08255 | 9048 ft | 271 kts | 345° |
| 2026-04-28 14:37 | 35.51326 | 25.07661 | 9895 ft | 275 kts | 345° |
| 2026-04-28 14:37 | 35.53202 | 25.07045 | 10521 ft | 286 kts | 345° |
| 2026-04-28 14:37 | 35.55196 | 25.06387 | 10876 ft | 307 kts | 345° |
| 2026-04-28 14:37 | 35.57323 | 25.05685 | 11166 ft | 327 kts | 345° |
| 2026-04-28 14:38 | 35.59589 | 25.04939 | 11437 ft | 347 kts | 344° |
| 2026-04-28 14:38 | 35.61970 | 25.04156 | 11802 ft | 361 kts | 344° |
| 2026-04-28 14:38 | 35.64425 | 25.03353 | 12392 ft | 367 kts | 344° |
| 2026-04-28 14:38 | 35.66903 | 25.02544 | 13087 ft | 371 kts | 344° |
| 2026-04-28 14:39 | 35.69418 | 25.01724 | 13774 ft | 375 kts | 344° |
| 2026-04-28 14:39 | 35.71933 | 25.00820 | 14381 ft | 378 kts | 338° |
| 2026-04-28 14:39 | 35.73965 | 24.99825 | 14940 ft | 380 kts | 337° |
| 2026-04-28 14:39 | 35.76489 | 24.98615 | 15626 ft | 382 kts | 338° |
| 2026-04-28 14:40 | 35.78954 | 24.97451 | 16263 ft | 385 kts | 338° |
| 2026-04-28 14:40 | 35.79799 | 24.97054 | 16480 ft | 386 kts | 338° |
| 2026-04-28 14:40 | 35.83527 | 24.95311 | 17414 ft | 390 kts | 338° |
| 2026-04-28 14:40 | 35.86018 | 24.94147 | 18007 ft | 393 kts | 338° |
| 2026-04-28 14:41 | 35.88591 | 24.92946 | 18587 ft | 396 kts | 338° |
| 2026-04-28 14:41 | 35.90289 | 24.92153 | 18935 ft | 398 kts | 338° |
| 2026-04-28 14:41 | 35.92895 | 24.90936 | 19479 ft | 400 kts | 338° |
| 2026-04-28 14:41 | 35.95512 | 24.89712 | 20005 ft | 403 kts | 338° |
| 2026-04-28 14:42 | 35.99000 | 24.88080 | 20697 ft | 406 kts | 338° |
| 2026-04-28 14:42 | 36.00788 | 24.87242 | 21047 ft | 408 kts | 338° |
| 2026-04-28 14:42 | 36.03454 | 24.85993 | 21567 ft | 411 kts | 337° |
| 2026-04-28 14:42 | 36.06006 | 24.84425 | 22032 ft | 411 kts | 323° |
| 2026-04-28 14:43 | 36.08269 | 24.82265 | 22523 ft | 413 kts | 321° |
| 2026-04-28 14:43 | 36.10536 | 24.80066 | 22982 ft | 416 kts | 321° |
| 2026-04-28 14:43 | 36.12805 | 24.77839 | 23478 ft | 418 kts | 320° |
| 2026-04-28 14:43 | 36.15086 | 24.75584 | 23901 ft | 421 kts | 320° |
| 2026-04-28 14:44 | 36.17346 | 24.73343 | 24288 ft | 423 kts | 320° |
| 2026-04-28 14:44 | 36.19649 | 24.71055 | 24674 ft | 425 kts | 320° |
| 2026-04-28 14:44 | 36.21959 | 24.68759 | 25059 ft | 428 kts | 320° |
| 2026-04-28 14:44 | 36.24285 | 24.66445 | 25439 ft | 430 kts | 320° |
| 2026-04-28 14:45 | 36.26625 | 24.64115 | 25805 ft | 433 kts | 321° |
| 2026-04-28 14:45 | 36.28976 | 24.61773 | 26168 ft | 435 kts | 321° |
| 2026-04-28 14:45 | 36.31339 | 24.59416 | 26533 ft | 437 kts | 321° |
| 2026-04-28 14:45 | 36.33720 | 24.57040 | 26888 ft | 440 kts | 321° |
| 2026-04-28 14:46 | 36.36109 | 24.54653 | 27243 ft | 442 kts | 321° |
| 2026-04-28 14:46 | 36.38515 | 24.52248 | 27595 ft | 444 kts | 321° |
| 2026-04-28 14:46 | 36.40920 | 24.49842 | 27966 ft | 445 kts | 321° |
| 2026-04-28 14:46 | 36.43295 | 24.47464 | 28431 ft | 444 kts | 321° |
| 2026-04-28 14:47 | 36.45697 | 24.45057 | 28910 ft | 443 kts | 321° |
| 2026-04-28 14:47 | 36.48061 | 24.42686 | 29378 ft | 442 kts | 321° |
| 2026-04-28 14:47 | 36.50445 | 24.40292 | 29848 ft | 441 kts | 321° |
| 2026-04-28 14:47 | 36.52831 | 24.37895 | 30281 ft | 440 kts | 321° |
| 2026-04-28 14:48 | 36.55210 | 24.35503 | 30654 ft | 439 kts | 321° |
| 2026-04-28 14:48 | 36.57583 | 24.33114 | 31015 ft | 439 kts | 321° |
| 2026-04-28 14:48 | 36.59952 | 24.30728 | 31402 ft | 437 kts | 321° |
| 2026-04-28 14:48 | 36.62311 | 24.28351 | 31789 ft | 436 kts | 321° |
| 2026-04-28 14:49 | 36.64670 | 24.25971 | 32056 ft | 437 kts | 321° |
| 2026-04-28 14:49 | 36.69380 | 24.21215 | 32068 ft | 434 kts | 321° |
| 2026-04-28 14:50 | 36.74064 | 24.16477 | 32071 ft | 434 kts | 321° |
| 2026-04-28 14:50 | 36.78749 | 24.11730 | 32072 ft | 434 kts | 321° |
| 2026-04-28 14:51 | 36.83436 | 24.06974 | 32080 ft | 434 kts | 321° |
| 2026-04-28 14:51 | 36.88127 | 24.02205 | 32073 ft | 436 kts | 321° |
| 2026-04-28 14:52 | 36.92798 | 23.97452 | 32075 ft | 435 kts | 321° |
| 2026-04-28 14:52 | 36.97494 | 23.92669 | 32075 ft | 435 kts | 321° |
| 2026-04-28 14:53 | 37.02191 | 23.87876 | 32076 ft | 435 kts | 321° |
| 2026-04-28 14:53 | 37.06886 | 23.83078 | 32075 ft | 435 kts | 321° |
| 2026-04-28 14:54 | 37.11576 | 23.78277 | 32082 ft | 436 kts | 321° |
| 2026-04-28 14:54 | 37.16274 | 23.73460 | 32066 ft | 437 kts | 321° |
| 2026-04-28 14:55 | 37.20981 | 23.68626 | 32073 ft | 437 kts | 320° |
| 2026-04-28 14:55 | 37.25680 | 23.63791 | 32077 ft | 437 kts | 320° |
| 2026-04-28 14:56 | 37.30381 | 23.58947 | 32079 ft | 437 kts | 320° |
| 2026-04-28 14:56 | 37.35051 | 23.54126 | 32078 ft | 437 kts | 320° |
| 2026-04-28 14:57 | 37.39755 | 23.49264 | 32077 ft | 438 kts | 321° |
| 2026-04-28 14:57 | 37.44465 | 23.44385 | 32074 ft | 439 kts | 320° |
| 2026-04-28 14:58 | 37.49186 | 23.39487 | 32083 ft | 440 kts | 320° |
| 2026-04-28 14:58 | 37.53910 | 23.34578 | 32077 ft | 440 kts | 320° |
| 2026-04-28 14:59 | 37.58625 | 23.29670 | 32078 ft | 440 kts | 320° |
| 2026-04-28 14:59 | 37.63345 | 23.24749 | 32078 ft | 440 kts | 320° |
| 2026-04-28 15:00 | 37.68056 | 23.19828 | 32083 ft | 440 kts | 320° |
| 2026-04-28 15:00 | 37.72767 | 23.14899 | 32080 ft | 439 kts | 320° |
| 2026-04-28 15:01 | 37.77472 | 23.09968 | 32065 ft | 439 kts | 320° |
| 2026-04-28 15:01 | 37.82181 | 23.05024 | 32083 ft | 440 kts | 320° |
| 2026-04-28 15:02 | 37.86883 | 23.00081 | 32067 ft | 439 kts | 320° |
| 2026-04-28 15:02 | 37.91557 | 22.95159 | 32074 ft | 440 kts | 320° |
| 2026-04-28 15:02 | 37.93661 | 22.92369 | 32052 ft | 439 kts | 306° |
| 2026-04-28 15:03 | 37.95398 | 22.89188 | 32071 ft | 441 kts | 306° |
| 2026-04-28 15:03 | 37.98955 | 22.82843 | 32080 ft | 442 kts | 306° |
| 2026-04-28 15:04 | 38.02478 | 22.76450 | 32070 ft | 442 kts | 306° |
| 2026-04-28 15:04 | 38.05995 | 22.70041 | 32084 ft | 443 kts | 306° |
| 2026-04-28 15:05 | 38.09510 | 22.63629 | 32082 ft | 443 kts | 306° |
| 2026-04-28 15:05 | 38.13024 | 22.57205 | 32086 ft | 443 kts | 306° |
| 2026-04-28 15:06 | 38.16538 | 22.50769 | 32086 ft | 443 kts | 305° |
| 2026-04-28 15:06 | 38.20045 | 22.44333 | 32075 ft | 443 kts | 305° |
| 2026-04-28 15:07 | 38.23552 | 22.37883 | 32086 ft | 443 kts | 305° |
| 2026-04-28 15:07 | 38.27057 | 22.31426 | 32084 ft | 443 kts | 305° |
| 2026-04-28 15:08 | 38.30538 | 22.25003 | 32091 ft | 443 kts | 305° |
| 2026-04-28 15:08 | 38.34036 | 22.18527 | 31933 ft | 443 kts | 305° |
| 2026-04-28 15:08 | 38.35783 | 22.15289 | 31692 ft | 443 kts | 305° |
| 2026-04-28 15:09 | 38.37527 | 22.12055 | 31455 ft | 443 kts | 305° |
| 2026-04-28 15:09 | 38.39273 | 22.08811 | 31209 ft | 443 kts | 305° |
| 2026-04-28 15:09 | 38.41015 | 22.05573 | 30988 ft | 444 kts | 305° |
| 2026-04-28 15:09 | 38.42171 | 22.03423 | 30829 ft | 444 kts | 305° |
| 2026-04-28 15:10 | 38.44511 | 21.99065 | 30525 ft | 445 kts | 305° |
| 2026-04-28 15:10 | 38.46262 | 21.95799 | 30290 ft | 445 kts | 305° |
| 2026-04-28 15:10 | 38.48014 | 21.92530 | 30049 ft | 446 kts | 305° |
| 2026-04-28 15:10 | 38.49744 | 21.89296 | 29702 ft | 447 kts | 305° |
| 2026-04-28 15:11 | 38.51499 | 21.86016 | 29458 ft | 448 kts | 305° |
| 2026-04-28 15:11 | 38.53258 | 21.82722 | 29184 ft | 449 kts | 305° |
| 2026-04-28 15:11 | 38.55017 | 21.79424 | 28910 ft | 450 kts | 304° |
| 2026-04-28 15:11 | 38.56778 | 21.76119 | 28645 ft | 450 kts | 304° |
| 2026-04-28 15:12 | 38.58544 | 21.72802 | 28386 ft | 451 kts | 304° |
| 2026-04-28 15:12 | 38.60308 | 21.69484 | 28122 ft | 452 kts | 304° |
| 2026-04-28 15:12 | 38.62076 | 21.66157 | 27866 ft | 452 kts | 304° |
| 2026-04-28 15:12 | 38.63841 | 21.62830 | 27610 ft | 453 kts | 304° |
| 2026-04-28 15:13 | 38.65554 | 21.59600 | 27371 ft | 454 kts | 304° |
| 2026-04-28 15:13 | 38.67325 | 21.56254 | 27119 ft | 455 kts | 304° |
| 2026-04-28 15:13 | 38.69100 | 21.52899 | 26876 ft | 456 kts | 304° |
| 2026-04-28 15:13 | 38.70872 | 21.49546 | 26382 ft | 451 kts | 304° |
| 2026-04-28 15:14 | 38.72598 | 21.46279 | 25273 ft | 458 kts | 304° |
| 2026-04-28 15:14 | 38.74379 | 21.42902 | 24552 ft | 455 kts | 304° |
| 2026-04-28 15:14 | 38.76138 | 21.39565 | 23943 ft | 450 kts | 304° |
| 2026-04-28 15:14 | 38.77880 | 21.36257 | 23183 ft | 447 kts | 304° |
| 2026-04-28 15:15 | 38.79609 | 21.32969 | 22445 ft | 443 kts | 304° |
| 2026-04-28 15:15 | 38.80745 | 21.30808 | 21999 ft | 440 kts | 304° |
| 2026-04-28 15:15 | 38.83012 | 21.26489 | 21101 ft | 434 kts | 304° |
| 2026-04-28 15:15 | 38.84637 | 21.23391 | 20455 ft | 431 kts | 304° |
| 2026-04-28 15:16 | 38.86284 | 21.20248 | 19812 ft | 428 kts | 304° |
| 2026-04-28 15:16 | 38.87856 | 21.17243 | 19185 ft | 426 kts | 304° |
| 2026-04-28 15:16 | 38.89502 | 21.14096 | 18540 ft | 423 kts | 304° |
| 2026-04-28 15:16 | 38.91136 | 21.10968 | 17894 ft | 419 kts | 304° |
| 2026-04-28 15:17 | 38.92745 | 21.07884 | 17337 ft | 413 kts | 304° |
| 2026-04-28 15:17 | 38.94348 | 21.04810 | 16564 ft | 413 kts | 304° |
| 2026-04-28 15:17 | 38.95932 | 21.01768 | 16045 ft | 407 kts | 304° |
| 2026-04-28 15:17 | 38.97510 | 20.98738 | 15331 ft | 407 kts | 304° |
| 2026-04-28 15:18 | 38.99073 | 20.95730 | 14815 ft | 402 kts | 304° |
| 2026-04-28 15:18 | 39.00623 | 20.92744 | 14162 ft | 400 kts | 304° |
| 2026-04-28 15:18 | 39.02138 | 20.89823 | 13432 ft | 387 kts | 304° |
| 2026-04-28 15:18 | 39.03605 | 20.86991 | 12799 ft | 374 kts | 304° |
| 2026-04-28 15:19 | 39.05019 | 20.84261 | 12290 ft | 360 kts | 304° |
| 2026-04-28 15:19 | 39.06373 | 20.81643 | 12092 ft | 345 kts | 303° |
| 2026-04-28 15:19 | 39.07690 | 20.79097 | 11879 ft | 337 kts | 304° |
| 2026-04-28 15:19 | 39.08972 | 20.76613 | 11677 ft | 329 kts | 304° |
| 2026-04-28 15:20 | 39.10220 | 20.74196 | 11502 ft | 320 kts | 304° |
| 2026-04-28 15:20 | 39.11439 | 20.71833 | 11337 ft | 312 kts | 303° |
| 2026-04-28 15:20 | 39.12621 | 20.69538 | 11175 ft | 304 kts | 303° |
| 2026-04-28 15:20 | 39.13772 | 20.67303 | 11021 ft | 295 kts | 303° |
| 2026-04-28 15:21 | 39.14875 | 20.65160 | 10872 ft | 287 kts | 303° |
| 2026-04-28 15:21 | 39.15962 | 20.63047 | 10743 ft | 279 kts | 303° |
| 2026-04-28 15:21 | 39.17017 | 20.60995 | 10603 ft | 270 kts | 303° |
| 2026-04-28 15:21 | 39.18040 | 20.59003 | 10471 ft | 264 kts | 303° |
| 2026-04-28 15:22 | 39.19063 | 20.57010 | 10359 ft | 272 kts | 303° |
| 2026-04-28 15:22 | 39.20120 | 20.54949 | 10230 ft | 278 kts | 303° |
| 2026-04-28 15:22 | 39.21196 | 20.52851 | 10022 ft | 282 kts | 303° |
| 2026-04-28 15:22 | 39.22279 | 20.50736 | 9682 ft | 283 kts | 303° |
| 2026-04-28 15:23 | 39.23365 | 20.48614 | 9339 ft | 283 kts | 303° |
| 2026-04-28 15:23 | 39.24444 | 20.46505 | 9028 ft | 281 kts | 303° |
| 2026-04-28 15:23 | 39.25518 | 20.44406 | 8716 ft | 279 kts | 303° |
| 2026-04-28 15:23 | 39.26513 | 20.42271 | 8397 ft | 277 kts | 294° |
| 2026-04-28 15:24 | 39.27282 | 20.39999 | 8071 ft | 276 kts | 292° |
| 2026-04-28 15:24 | 39.28059 | 20.37738 | 7777 ft | 274 kts | 292° |
| 2026-04-28 15:24 | 39.28841 | 20.35502 | 7504 ft | 273 kts | 293° |
| 2026-04-28 15:24 | 39.29627 | 20.33277 | 7203 ft | 271 kts | 293° |
| 2026-04-28 15:25 | 39.30412 | 20.31068 | 6912 ft | 270 kts | 293° |
| 2026-04-28 15:25 | 39.31199 | 20.28868 | 6625 ft | 269 kts | 293° |
| 2026-04-28 15:25 | 39.31982 | 20.26679 | 6318 ft | 267 kts | 293° |
| 2026-04-28 15:25 | 39.32760 | 20.24503 | 6020 ft | 266 kts | 292° |
| 2026-04-28 15:26 | 39.33531 | 20.22349 | 5732 ft | 264 kts | 293° |
| 2026-04-28 15:26 | 39.34299 | 20.20203 | 5436 ft | 262 kts | 293° |
| 2026-04-28 15:26 | 39.35062 | 20.18066 | 5123 ft | 261 kts | 293° |
| 2026-04-28 15:26 | 39.35822 | 20.15938 | 4833 ft | 260 kts | 294° |
| 2026-04-28 15:27 | 39.36539 | 20.13931 | 4539 ft | 258 kts | 294° |
| 2026-04-28 15:27 | 39.37282 | 20.11848 | 4327 ft | 250 kts | 294° |
| 2026-04-28 15:27 | 39.37987 | 20.09867 | 4183 ft | 235 kts | 294° |
| 2026-04-28 15:27 | 39.38646 | 20.08014 | 4074 ft | 219 kts | 294° |
| 2026-04-28 15:28 | 39.39263 | 20.06276 | 3926 ft | 206 kts | 294° |
| 2026-04-28 15:28 | 39.39844 | 20.04642 | 3797 ft | 194 kts | 295° |
| 2026-04-28 15:28 | 39.40397 | 20.03089 | 3659 ft | 188 kts | 295° |
| 2026-04-28 15:28 | 39.40942 | 20.01553 | 3570 ft | 187 kts | 295° |
| 2026-04-28 15:29 | 39.41486 | 20.00026 | 3436 ft | 187 kts | 296° |
| 2026-04-28 15:29 | 39.42120 | 19.98565 | 3252 ft | 187 kts | 314° |
| 2026-04-28 15:29 | 39.43181 | 19.97624 | 3024 ft | 185 kts | 335° |
| 2026-04-28 15:29 | 39.44382 | 19.97035 | 2863 ft | 185 kts | 341° |
| 2026-04-28 15:30 | 39.45616 | 19.96557 | 2706 ft | 185 kts | 343° |
| 2026-04-28 15:30 | 39.46817 | 19.96111 | 2464 ft | 183 kts | 343° |
| 2026-04-28 15:30 | 39.47629 | 19.95809 | 2308 ft | 184 kts | 342° |
| 2026-04-28 15:30 | 39.48832 | 19.95358 | 2093 ft | 175 kts | 342° |
| 2026-04-28 15:31 | 39.49960 | 19.94935 | 1861 ft | 162 kts | 342° |
| 2026-04-28 15:31 | 39.51006 | 19.94543 | 1674 ft | 151 kts | 342° |
| 2026-04-28 15:31 | 39.52341 | 19.94036 | 1380 ft | 150 kts | 339° |
| 2026-04-28 15:31 | 39.53302 | 19.93537 | 1041 ft | 149 kts | 334° |
| 2026-04-28 15:32 | 39.53945 | 19.93170 | 925 ft | 149 kts | 334° |
| 2026-04-28 15:32 | 39.54908 | 19.92632 | 832 ft | 151 kts | 336° |
| 2026-04-28 15:32 | 39.55910 | 19.92266 | 648 ft | 153 kts | 348° |
| 2026-04-28 15:32 | 39.56979 | 19.92028 | 436 ft | 154 kts | 348° |
| 2026-04-28 15:33 | 39.58039 | 19.91766 | 261 ft | 156 kts | 346° |
| 2026-04-28 15:33 | 39.59085 | 19.91497 | 52 ft | 155 kts | 346° |
| 2026-04-28 15:33 | 39.59979 | 19.91254 | 25 ft | 94 kts | 349° |
| 2026-04-28 15:33 | 39.60409 | 19.91149 | 22 ft | 35 kts | 348° |
| 2026-04-28 15:34 | 39.60572 | 19.91185 | 21 ft | 15 kts | 28° |
| 2026-04-28 15:34 | 39.60597 | 19.91214 | 22 ft | 0 kts | 44° |
| 2026-04-28 15:34 | 39.60625 | 19.91230 | 24 ft | 4 kts | 9° |
| 2026-04-28 15:35 | 39.60654 | 19.91269 | 25 ft | 11 kts | 75° |
| 2026-04-28 15:35 | 39.60667 | 19.91355 | 22 ft | 0 kts | 78° |